Time;durP1;ratioP1;P1;durP2;ratioP2;P2;SDS_P1;SDS_P2;PMS_P1;PMS_P2;Temp;Humidity;BMP_temperature;BMP_pressure;BME280_temperature;BME280_humidity;BME280_pressure;Samples;Min_cycle;Max_cycle;Signal;HPM_P1;HPM_P2
2022/03/01 00:02:06;;;;;;;24.40;10.03;;;;;;;11.21;44.91;102668.63;4902776;29;20289;-52
2022/03/01 00:04:32;;;;;;;23.83;9.67;;;;;;;11.04;45.52;102667.66;4913972;29;20025;-51
2022/03/01 00:06:57;;;;;;;21.23;9.57;;;;;;;11.17;45.17;102675.28;4907507;29;20036;-46
2022/03/01 00:09:23;;;;;;;27.47;11.30;;;;;;;11.50;44.60;102677.41;4907600;29;20057;-50
2022/03/01 00:11:48;;;;;;;17.00;7.73;;;;;;;11.48;44.64;102674.84;4913945;29;20044;-50
2022/03/01 00:14:13;;;;;;;23.47;10.80;;;;;;;11.38;44.60;102669.59;4902628;29;20104;-49
2022/03/01 00:16:39;;;;;;;20.13;10.13;;;;;;;11.18;45.31;102666.25;4913076;29;20045;-54
2022/03/01 00:19:05;;;;;;;22.40;10.13;;;;;;;11.04;45.62;102667.66;4909023;29;20119;-47
2022/03/01 00:21:30;;;;;;;25.13;11.60;;;;;;;10.85;46.48;102664.13;4909944;29;20041;-48
2022/03/01 00:23:56;;;;;;;22.60;9.87;;;;;;;10.90;46.84;102661.00;4901892;29;20068;-46
2022/03/01 00:26:22;;;;;;;19.35;9.65;;;;;;;10.85;47.18;102648.06;4905905;29;20347;-50
2022/03/01 00:28:47;;;;;;;21.47;11.00;;;;;;;10.84;47.21;102650.88;4915304;29;20037;-49
2022/03/01 00:31:13;;;;;;;21.97;11.10;;;;;;;11.11;46.64;102659.84;4912269;29;20036;-52
2022/03/01 00:33:39;;;;;;;19.23;9.50;;;;;;;11.40;45.53;102661.41;4908723;29;20048;-50
2022/03/01 00:36:05;;;;;;;25.25;9.60;;;;;;;11.56;45.18;102661.53;4901505;29;20065;-51
2022/03/01 00:38:31;;;;;;;20.45;10.25;;;;;;;11.35;45.47;102655.69;4906775;29;20049;-55
2022/03/01 00:40:57;;;;;;;22.40;10.50;;;;;;;11.07;46.17;102661.97;4913958;29;20044;-48
2022/03/01 00:43:22;;;;;;;20.53;10.73;;;;;;;11.16;45.72;102665.56;4913458;29;20116;-52
2022/03/01 00:45:49;;;;;;;25.63;11.70;;;;;;;11.02;46.31;102658.94;4907081;29;20292;-54
2022/03/01 00:48:15;;;;;;;22.33;9.95;;;;;;;11.35;45.32;102653.00;4901302;29;20044;-49
2022/03/01 00:50:42;;;;;;;25.50;10.40;;;;;;;11.18;45.69;102659.06;4907768;29;20036;-50
2022/03/01 00:53:08;;;;;;;21.60;10.13;;;;;;;11.18;45.64;102664.41;4912513;29;20041;-51
2022/03/01 00:55:34;;;;;;;25.08;11.00;;;;;;;11.29;45.42;102662.50;4914491;29;20052;-53
2022/03/01 00:57:59;;;;;;;25.50;11.17;;;;;;;11.18;45.65;102664.41;4905598;29;20076;-50
2022/03/01 01:00:27;;;;;;;25.73;10.80;;;;;;;11.06;45.68;102660.31;4905697;29;20072;-50
2022/03/01 01:02:53;;;;;;;24.90;11.18;;;;;;;11.02;45.48;102661.59;4914261;29;20060;-52
2022/03/01 01:05:18;;;;;;;22.70;9.77;;;;;;;10.90;46.12;102661.00;4912217;29;20037;-51
2022/03/01 01:07:44;;;;;;;24.42;9.57;;;;;;;10.63;46.68;102670.78;4907468;29;20048;-48
2022/03/01 01:10:11;;;;;;;25.17;11.67;;;;;;;10.76;46.79;102667.72;4917626;29;20048;-50
2022/03/01 01:12:36;;;;;;;19.80;9.73;;;;;;;11.28;45.28;102667.00;4906723;29;20036;-50
2022/03/01 01:15:04;;;;;;;22.63;9.75;;;;;;;10.95;46.31;102661.38;4912533;29;20052;-51
2022/03/01 01:17:30;;;;;;;23.50;10.07;;;;;;;10.86;46.50;102664.97;4913387;29;20041;-49
2022/03/01 01:19:56;;;;;;;24.45;11.00;;;;;;;11.00;46.48;102661.75;4905739;29;20070;-46
2022/03/01 01:22:40;;;;;;;22.80;10.43;;;;;;;11.16;46.34;102660.22;4917312;29;20045;-50
2022/03/01 01:25:20;;;;;;;26.98;10.05;;;;;;;11.35;45.77;102661.03;4910071;29;20063;-47
2022/03/01 01:27:53;;;;;;;26.25;10.82;;;;;;;11.23;45.67;102666.63;4906972;29;20037;-49
2022/03/01 01:30:22;;;;;;;23.45;10.52;;;;;;;10.90;46.53;102658.31;4916561;29;20063;-52
2022/03/01 01:32:48;;;;;;;25.58;11.55;;;;;;;10.93;46.72;102657.16;4907579;29;20032;-51
2022/03/01 01:35:16;;;;;;;23.92;10.38;;;;;;;10.66;47.37;102653.56;4911119;29;20057;-52
2022/03/01 01:37:43;;;;;;;23.92;11.48;;;;;;;10.94;47.00;102646.31;4914506;29;20084;-50
2022/03/01 01:40:12;;;;;;;21.13;9.65;;;;;;;10.79;47.25;102655.84;4904648;29;20049;-49
2022/03/01 01:42:37;;;;;;;24.55;11.25;;;;;;;10.94;46.90;102650.81;4915593;29;20070;-51
2022/03/01 01:45:04;;;;;;;20.43;9.97;;;;;;;11.35;45.85;102666.41;4909419;29;20041;-50
2022/03/01 01:47:30;;;;;;;22.05;9.65;;;;;;;11.19;45.88;102660.75;4908682;29;20048;-53
2022/03/01 01:49:56;;;;;;;25.52;10.60;;;;;;;11.46;45.19;102658.09;4916148;29;20036;-51
2022/03/01 01:52:24;;;;;;;20.57;10.13;;;;;;;11.45;45.11;102665.31;4904598;29;20081;-47
2022/03/01 01:54:50;;;;;;;22.65;10.85;;;;;;;11.48;45.06;102664.13;4913444;29;20061;-48
2022/03/01 01:57:19;;;;;;;23.67;10.03;;;;;;;11.48;44.57;102659.63;4910863;29;20068;-51
2022/03/01 01:59:46;;;;;;;24.05;11.38;;;;;;;11.34;45.06;102668.22;4906617;29;20040;-49
2022/03/01 02:02:18;;;;;;;25.92;11.77;;;;;;;11.15;45.62;102664.72;4916586;29;20033;-51
2022/03/01 02:04:44;;;;;;;27.45;11.20;;;;;;;11.04;45.68;102660.44;4906518;29;20045;-49
2022/03/01 02:07:11;;;;;;;25.17;11.15;;;;;;;11.28;45.36;102652.78;4911022;29;20054;-47
2022/03/01 02:09:37;;;;;;;24.50;11.70;;;;;;;10.97;46.37;102653.22;4913284;29;20096;-49
2022/03/01 02:12:03;;;;;;;24.95;11.48;;;;;;;10.93;46.55;102649.13;4903266;29;20056;-52
2022/03/01 02:14:31;;;;;;;24.70;11.25;;;;;;;10.80;46.39;102658.41;4916366;29;20033;-50
2022/03/01 02:16:59;;;;;;;24.98;10.90;;;;;;;10.82;46.60;102650.19;4907827;29;20029;-49
2022/03/01 02:19:25;;;;;;;24.55;11.88;;;;;;;10.81;46.15;102653.88;4909121;29;20097;-51
2022/03/01 02:21:54;;;;;;;23.52;11.05;;;;;;;10.67;46.62;102661.44;4914945;29;20040;-49
2022/03/01 02:24:27;;;;;;;24.85;10.55;;;;;;;11.06;46.03;102652.28;4904041;29;20049;-48
2022/03/01 02:26:55;;;;;;;21.08;10.63;;;;;;;11.08;45.78;102649.44;4900023;29;20052;-51
2022/03/01 02:29:21;;;;;;;24.17;10.55;;;;;;;11.13;45.56;102653.31;4910654;29;20042;-51
2022/03/01 02:31:46;;;;;;;23.77;10.27;;;;;;;11.37;45.03;102646.47;4906215;29;20037;-49
2022/03/01 02:34:11;;;;;;;29.37;11.73;;;;;;;11.12;45.40;102650.81;4899856;29;20048;-51
2022/03/01 02:36:37;;;;;;;29.08;11.88;;;;;;;11.17;45.44;102656.53;4904940;29;20449;-52
2022/03/01 02:39:03;;;;;;;28.63;12.77;;;;;;;11.05;45.83;102646.06;4911600;29;20049;-51
2022/03/01 02:41:29;;;;;;;21.48;10.73;;;;;;;11.00;45.85;102637.66;4911222;29;20040;-46
2022/03/01 02:43:54;;;;;;;23.00;10.77;;;;;;;10.79;45.95;102637.13;4905042;29;20074;-52
2022/03/01 02:46:20;;;;;;;20.00;10.23;;;;;;;10.71;46.96;102645.91;4918031;29;20069;-49
2022/03/01 02:48:45;;;;;;;24.17;11.37;;;;;;;10.78;46.61;102632.75;4913704;29;20058;-49
2022/03/01 02:51:11;;;;;;;26.57;12.70;;;;;;;10.79;46.93;102621.06;4909109;29;20036;-50
2022/03/01 02:53:36;;;;;;;22.97;10.97;;;;;;;10.81;46.70;102624.44;4907002;29;20045;-52
2022/03/01 02:56:03;;;;;;;26.17;11.53;;;;;;;10.46;47.67;102625.09;4915194;29;20135;-49
2022/03/01 02:58:29;;;;;;;23.70;11.77;;;;;;;10.40;47.59;102630.19;4903265;29;20067;-50
2022/03/01 03:00:54;;;;;;;23.80;10.83;;;;;;;10.80;47.18;102628.97;4912659;29;20053;-52
2022/03/01 03:03:20;;;;;;;24.85;10.93;;;;;;;10.81;46.55;102619.06;4910154;29;20047;-53
2022/03/01 03:05:46;;;;;;;23.90;11.95;;;;;;;10.87;46.70;102616.63;4906085;29;20070;-51
2022/03/01 03:08:12;;;;;;;22.87;11.37;;;;;;;10.81;46.96;102616.41;4915572;29;20044;-49
2022/03/01 03:10:37;;;;;;;22.13;10.80;;;;;;;10.48;48.04;102624.94;4904351;29;20033;-49
2022/03/01 03:13:04;;;;;;;24.17;11.48;;;;;;;10.75;47.24;102615.19;4911353;29;20044;-46
2022/03/01 03:15:30;;;;;;;24.95;10.63;;;;;;;10.70;47.68;102629.03;4911095;29;20041;-49
2022/03/01 03:17:56;;;;;;;27.02;10.70;;;;;;;10.45;47.55;102628.78;4904657;29;20069;-49
2022/03/01 03:20:22;;;;;;;;;;;;;;;10.53;47.38;102629.84;4915665;29;20052;-51
2022/03/01 03:22:48;;;;;;;26.53;12.47;;;;;;;10.28;47.82;102618.84;4905558;29;19912;-52
2022/03/01 03:25:13;;;;;;;24.60;10.97;;;;;;;10.41;47.86;102622.06;4909945;29;20068;-50
2022/03/01 03:27:39;;;;;;;25.45;11.35;;;;;;;10.37;47.66;102623.28;4896148;29;20052;-48
2022/03/01 03:30:09;;;;;;;26.57;12.40;;;;;;;10.39;48.06;102617.78;4903220;29;20048;-49
2022/03/01 03:32:35;;;;;;;22.23;11.27;;;;;;;10.61;47.44;102613.91;4914744;29;20067;-51
2022/03/01 03:35:02;;;;;;;20.25;11.68;;;;;;;10.11;48.01;102618.66;4907280;29;20040;-50
2022/03/01 03:37:28;;;;;;;24.10;11.43;;;;;;;10.39;48.17;102615.13;4907597;29;20049;-47
2022/03/01 03:39:54;;;;;;;28.08;11.73;;;;;;;10.43;47.90;102622.75;4914243;29;20104;-50
2022/03/01 03:42:21;;;;;;;22.77;10.67;;;;;;;10.32;47.84;102617.56;4902963;29;20061;-47
2022/03/01 03:44:47;;;;;;;25.80;11.90;;;;;;;10.53;47.12;102617.31;4913294;29;20033;-53
2022/03/01 03:47:13;;;;;;;28.83;11.60;;;;;;;10.52;47.47;102620.13;4892018;29;20044;-51
2022/03/01 03:49:38;;;;;;;22.63;10.37;;;;;;;10.56;47.43;102626.88;4906514;29;20041;-49
2022/03/01 03:52:05;;;;;;;22.43;10.13;;;;;;;10.39;47.52;102621.31;4915112;29;20040;-51
2022/03/01 03:54:31;;;;;;;25.63;11.77;;;;;;;10.37;47.88;102615.25;4903572;29;20033;-50
2022/03/01 03:56:57;;;;;;;23.75;11.70;;;;;;;10.15;48.28;102620.06;4915680;29;20057;-48
2022/03/01 03:59:23;;;;;;;27.70;11.90;;;;;;;10.32;47.85;102621.09;4913338;29;20140;-50
2022/03/01 04:01:49;;;;;;;26.92;11.30;;;;;;;10.48;47.10;102627.63;4908701;29;20033;-50
2022/03/01 04:04:15;;;;;;;27.25;11.25;;;;;;;10.44;47.15;102628.91;4918714;29;20048;-51
2022/03/01 04:06:40;;;;;;;26.33;11.37;;;;;;;10.86;46.30;102620.31;4891243;29;20107;-48
2022/03/01 04:09:06;;;;;;;22.30;10.75;;;;;;;10.75;46.50;102613.34;4914393;29;20037;-47
2022/03/01 04:11:33;;;;;;;26.58;10.80;;;;;;;10.75;46.50;102617.88;4914274;29;20055;-48
2022/03/01 04:13:59;;;;;;;23.25;10.88;;;;;;;10.59;46.98;102613.19;4907310;29;20041;-48
2022/03/01 04:16:27;;;;;;;21.95;10.88;;;;;;;10.78;46.08;102619.38;4918615;29;20061;-49
2022/03/01 04:18:54;;;;;;;26.20;11.68;;;;;;;10.75;46.49;102625.91;4909183;29;20040;-48
2022/03/01 04:21:19;;;;;;;23.00;10.55;;;;;;;10.54;46.61;102635.06;4912447;29;20045;-48
2022/03/01 04:23:45;;;;;;;26.80;11.73;;;;;;;10.73;45.93;102626.03;4915574;29;20047;-50
2022/03/01 04:26:11;;;;;;;21.13;9.05;;;;;;;11.03;45.45;102631.16;4905934;29;20040;-47
2022/03/01 04:28:37;;;;;;;19.52;9.30;;;;;;;11.10;45.61;102624.19;4917821;29;20049;-49
2022/03/01 04:31:02;;;;;;;24.03;10.63;;;;;;;10.90;45.63;102613.66;4910018;29;20040;-48
2022/03/01 04:33:27;;;;;;;25.83;11.20;;;;;;;10.87;45.72;102621.97;4911235;29;20036;-48
2022/03/01 04:35:54;;;;;;;24.00;11.07;;;;;;;10.58;46.18;102612.34;4916499;29;20065;-50
2022/03/01 04:38:20;;;;;;;19.83;9.80;;;;;;;10.30;46.45;102617.72;4904912;29;20041;-48
2022/03/01 04:40:47;;;;;;;20.42;10.05;;;;;;;10.81;45.78;102608.38;4916357;29;20065;-50
2022/03/01 04:43:12;;;;;;;26.88;11.18;;;;;;;11.23;44.90;102618.44;4910846;29;20036;-48
2022/03/01 04:45:39;;;;;;;23.80;10.90;;;;;;;11.37;44.57;102614.34;4909305;29;20045;-50
2022/03/01 04:48:04;;;;;;;23.33;10.07;;;;;;;11.54;44.44;102620.66;4917321;29;20040;-50
2022/03/01 04:50:30;;;;;;;23.27;10.70;;;;;;;11.13;44.91;102620.38;4905369;29;20033;-50
2022/03/01 04:52:55;;;;;;;22.83;10.60;;;;;;;11.09;44.88;102622.50;4915114;29;20047;-46
2022/03/01 04:55:22;;;;;;;25.73;10.90;;;;;;;11.15;44.98;102618.38;4911593;29;20088;-51
2022/03/01 04:57:47;;;;;;;21.23;10.13;;;;;;;11.11;44.70;102612.47;4908204;29;20041;-49
2022/03/01 05:00:14;;;;;;;23.77;10.68;;;;;;;11.25;44.36;102613.75;4917336;29;20033;-54
2022/03/01 05:02:41;;;;;;;;;;;;;;;11.20;44.98;102605.34;4906537;29;20052;-50
2022/03/01 05:05:10;;;;;;;26.40;12.35;;;;;;;10.92;45.39;102610.81;4913345;29;19975;-49
2022/03/01 05:07:40;;;;;;;28.13;12.27;;;;;;;11.11;44.68;102603.63;4913097;29;20052;-49
2022/03/01 05:10:07;;;;;;;21.08;10.75;;;;;;;10.67;45.57;102605.25;4905724;29;20061;-49
2022/03/01 05:12:49;;;;;;;27.23;11.40;;;;;;;11.26;44.57;102603.88;4917388;29;20033;-47
2022/03/01 05:15:16;;;;;;;25.60;11.13;;;;;;;11.40;43.81;102610.50;4910279;29;20045;-50
2022/03/01 05:17:43;;;;;;;22.00;10.32;;;;;;;11.03;44.98;102599.84;4908510;29;20037;-53
2022/03/01 05:20:09;;;;;;;20.73;10.85;;;;;;;11.35;44.40;102600.25;4917145;29;20040;-49
2022/03/01 05:22:36;;;;;;;24.60;11.32;;;;;;;11.33;44.16;102600.44;4920426;29;20048;-52
2022/03/01 05:25:04;;;;;;;23.15;10.05;;;;;;;11.31;43.71;102601.56;4913520;29;20036;-48
2022/03/01 05:27:30;;;;;;;24.30;10.57;;;;;;;11.02;44.12;102602.72;4911946;29;20047;-50
2022/03/01 05:29:56;;;;;;;19.37;9.50;;;;;;;10.80;44.13;102595.97;4906744;29;20100;-46
2022/03/01 05:32:21;;;;;;;22.27;10.32;;;;;;;10.79;44.61;102588.94;4917047;29;20056;-46
2022/03/01 05:34:47;;;;;;;27.33;11.40;;;;;;;10.96;43.95;102587.28;4906422;29;20036;-49
2022/03/01 05:37:12;;;;;;;26.45;10.30;;;;;;;10.90;43.68;102586.88;4912142;29;20065;-50
2022/03/01 05:39:38;;;;;;;15.00;7.30;;;;;;;11.18;43.61;102581.41;4896582;29;20040;-49
2022/03/01 05:42:05;;;;;;;21.73;10.05;;;;;;;10.68;43.91;102580.19;4905516;29;20037;-51
2022/03/01 05:44:30;;;;;;;25.80;9.82;;;;;;;11.21;43.29;102582.94;4916821;29;20040;-47
2022/03/01 05:46:56;;;;;;;22.27;10.40;;;;;;;10.92;43.55;102593.91;4907384;29;20104;-49
2022/03/01 05:49:22;;;;;;;29.20;10.68;;;;;;;11.11;43.66;102584.88;4911064;29;20045;-51
2022/03/01 05:51:48;;;;;;;20.02;9.57;;;;;;;11.31;43.08;102582.81;4913867;29;20048;-50
2022/03/01 05:54:14;;;;;;;20.10;9.63;;;;;;;11.28;43.28;102586.66;4904443;29;20060;-51
2022/03/01 05:56:39;;;;;;;23.60;9.60;;;;;;;11.23;43.09;102580.94;4916451;29;20053;-48
2022/03/01 05:59:05;;;;;;;23.27;9.43;;;;;;;11.13;43.07;102588.25;4908187;29;20044;-52
2022/03/01 06:01:30;;;;;;;19.83;9.43;;;;;;;11.44;42.83;102598.47;4909627;29;20047;-50
2022/03/01 06:03:55;;;;;;;19.93;8.97;;;;;;;11.65;42.53;102595.44;4914782;29;20112;-47
2022/03/01 06:06:21;;;;;;;23.45;11.93;;;;;;;11.24;43.28;102584.47;4904177;29;20045;-49
2022/03/01 06:08:47;;;;;;;22.67;10.57;;;;;;;10.83;44.21;102585.81;4899069;29;20052;-52
2022/03/01 06:11:12;;;;;;;18.70;8.90;;;;;;;10.94;44.10;102584.75;4908955;29;20037;-53
2022/03/01 06:13:38;;;;;;;25.37;10.90;;;;;;;11.21;44.09;102590.97;4908439;29;20096;-52
2022/03/01 06:16:04;;;;;;;27.97;10.67;;;;;;;11.37;44.11;102592.09;4899017;29;20312;-49
2022/03/01 06:18:30;;;;;;;25.52;11.32;;;;;;;11.13;44.15;102590.91;4903462;29;20049;-47
2022/03/01 06:20:57;;;;;;;20.70;9.77;;;;;;;11.28;44.23;102586.66;4913922;29;20040;-49
2022/03/01 06:23:23;;;;;;;24.73;10.55;;;;;;;11.13;44.53;102580.19;4910057;29;20069;-47
2022/03/01 06:25:48;;;;;;;25.38;11.35;;;;;;;11.03;44.91;102578.44;4906851;29;20036;-49
2022/03/01 06:28:14;;;;;;;26.73;11.63;;;;;;;10.80;45.29;102585.28;4916010;29;20068;-46
2022/03/01 06:30:39;;;;;;;27.13;11.43;;;;;;;10.54;46.06;102586.91;4904125;29;20036;-49
2022/03/01 06:33:05;;;;;;;28.87;11.13;;;;;;;10.74;45.31;102584.09;4912478;29;20056;-51
2022/03/01 06:35:30;;;;;;;21.80;10.23;;;;;;;11.07;44.96;102596.88;4910705;29;20064;-51
2022/03/01 06:37:56;;;;;;;25.40;10.85;;;;;;;10.88;45.23;102602.25;4905981;29;20041;-49
2022/03/01 06:40:22;;;;;;;21.17;10.53;;;;;;;11.09;44.90;102601.09;4916162;29;20055;-50
2022/03/01 06:42:49;;;;;;;23.77;11.75;;;;;;;11.17;44.83;102594.94;4904883;29;20039;-50
2022/03/01 06:45:15;;;;;;;21.95;10.82;;;;;;;10.90;45.03;102602.13;4911280;29;20041;-47
2022/03/01 06:47:41;;;;;;;25.27;10.88;;;;;;;10.70;45.44;102601.41;4911760;29;20036;-52
2022/03/01 06:50:08;;;;;;;27.33;11.68;;;;;;;10.95;45.11;102610.50;4904448;29;20056;-48
2022/03/01 06:52:34;;;;;;;22.25;9.85;;;;;;;11.46;44.33;102612.56;4915635;29;20072;-52
2022/03/01 06:55:06;;;;;;;24.17;11.60;;;;;;;10.89;45.20;102622.66;4886561;29;20065;-53
2022/03/01 06:57:32;;;;;;;25.75;10.65;;;;;;;11.10;45.40;102626.03;4889693;29;20033;-50
2022/03/01 06:59:57;;;;;;;24.08;11.27;;;;;;;11.28;44.61;102634.88;4894558;29;20039;-48
2022/03/01 07:02:26;;;;;;;27.80;11.33;;;;;;;11.65;44.21;102635.63;4884787;29;20041;-48
2022/03/01 07:04:51;;;;;;;22.67;10.75;;;;;;;11.64;43.63;102633.09;4895586;29;20056;-51
2022/03/01 07:07:17;;;;;;;26.98;10.15;;;;;;;11.42;43.90;102632.63;4889503;29;20076;-52
2022/03/01 07:09:43;;;;;;;24.13;12.07;;;;;;;11.02;44.19;102646.38;4888459;29;20173;-49
2022/03/01 07:12:08;;;;;;;22.20;11.37;;;;;;;11.07;44.61;102653.94;4895176;29;20037;-52
2022/03/01 07:14:34;;;;;;;22.10;10.47;;;;;;;11.27;44.24;102646.56;4884388;29;20068;-51
2022/03/01 07:16:59;;;;;;;27.57;11.57;;;;;;;11.23;44.41;102637.16;4894519;29;20060;-49
2022/03/01 07:19:25;;;;;;;26.90;11.65;;;;;;;10.93;44.47;102633.06;4890163;29;20085;-52
2022/03/01 07:21:50;;;;;;;28.60;12.23;;;;;;;10.97;44.94;102637.97;4888023;29;20073;-51
2022/03/01 07:24:16;;;;;;;25.17;10.97;;;;;;;10.92;44.73;102634.91;4896800;29;20045;-51
2022/03/01 07:26:41;;;;;;;28.20;11.70;;;;;;;10.97;45.08;102640.66;4884664;29;20049;-48
2022/03/01 07:29:07;;;;;;;22.77;10.45;;;;;;;11.30;44.71;102638.25;4894192;29;20048;-52
2022/03/01 07:31:33;;;;;;;27.45;11.57;;;;;;;11.71;44.33;102634.13;4895181;29;20033;-49
2022/03/01 07:33:59;;;;;;;24.60;11.67;;;;;;;11.72;44.25;102631.31;4890699;29;20041;-49
2022/03/01 07:36:25;;;;;;;26.80;11.43;;;;;;;12.05;43.55;102633.34;4900289;29;20089;-53
2022/03/01 07:38:50;;;;;;;29.67;13.07;;;;;;;11.82;43.75;102641.06;4889976;29;20069;-51
2022/03/01 07:41:16;;;;;;;26.55;12.18;;;;;;;11.42;44.60;102648.69;4895861;29;20041;-46
2022/03/01 07:43:41;;;;;;;28.20;14.10;;;;;;;11.51;44.88;102658.47;4896080;29;20045;-51
2022/03/01 07:46:12;;;;;;;26.13;12.40;;;;;;;11.34;45.06;102652.16;4889182;29;20041;-51
2022/03/01 07:48:42;;;;;;;27.33;12.77;;;;;;;11.46;45.41;102642.03;4900008;29;20026;-50
2022/03/01 07:51:07;;;;;;;38.95;14.95;;;;;;;11.82;44.52;102643.75;4891146;29;20081;-46
2022/03/01 07:53:34;;;;;;;32.10;12.83;;;;;;;11.86;45.21;102635.22;4893415;29;20105;-49
2022/03/01 07:56:00;;;;;;;26.83;13.18;;;;;;;11.82;45.32;102636.56;4909261;29;20067;-50
2022/03/01 07:58:26;;;;;;;28.00;12.75;;;;;;;11.28;45.87;102653.59;4906462;29;20037;-51
2022/03/01 08:00:52;;;;;;;29.35;13.20;;;;;;;11.39;46.11;102654.38;4916670;29;20070;-49
2022/03/01 08:03:18;;;;;;;29.70;14.33;;;;;;;11.46;46.28;102655.41;4894796;29;20108;-48
2022/03/01 08:05:44;;;;;;;27.50;12.17;;;;;;;11.27;46.32;102657.28;4910511;29;20037;-46
2022/03/01 08:08:11;;;;;;;30.38;13.55;;;;;;;11.09;47.71;102661.84;4917825;29;20067;-50
2022/03/01 08:10:38;;;;;;;34.13;14.68;;;;;;;11.44;46.69;102655.59;4906077;29;20040;-47
2022/03/01 08:13:04;;;;;;;33.05;14.48;;;;;;;11.17;47.74;102661.91;4915655;29;20045;-51
2022/03/01 08:15:30;;;;;;;29.13;13.17;;;;;;;11.00;48.18;102661.75;4912375;29;20104;-50
2022/03/01 08:17:58;;;;;;;31.10;13.50;;;;;;;11.23;47.87;102669.31;4909001;29;20041;-46
2022/03/01 08:20:24;;;;;;;28.13;13.65;;;;;;;11.38;46.99;102671.44;4919372;29;20041;-49
2022/03/01 08:22:50;;;;;;;32.20;14.05;;;;;;;11.39;47.21;102670.44;4917688;29;20036;-49
2022/03/01 08:25:16;;;;;;;34.23;12.80;;;;;;;11.85;46.85;102675.59;4917489;29;20075;-49
2022/03/01 08:27:42;;;;;;;28.45;12.88;;;;;;;11.22;47.92;102675.66;4921508;29;20041;-53
2022/03/01 08:30:08;;;;;;;25.70;12.17;;;;;;;11.50;47.61;102683.56;4904977;29;20044;-48
2022/03/01 08:32:34;;;;;;;29.58;13.65;;;;;;;11.70;47.70;102678.03;4919095;29;20104;-48
2022/03/01 08:34:59;;;;;;;28.50;13.07;;;;;;;11.91;47.65;102681.16;4908174;29;20040;-49
2022/03/01 08:37:26;;;;;;;25.50;11.93;;;;;;;11.73;47.40;102672.34;4912625;29;20037;-47
2022/03/01 08:39:52;;;;;;;28.48;12.18;;;;;;;12.52;45.90;102666.84;4914397;29;20039;-47
2022/03/01 08:42:18;;;;;;;25.60;12.93;;;;;;;12.68;45.00;102681.34;4905136;29;20033;-54
2022/03/01 08:44:44;;;;;;;26.60;12.20;;;;;;;12.72;45.37;102678.16;4917151;29;20048;-51
2022/03/01 08:47:10;;;;;;;24.65;12.32;;;;;;;12.55;45.64;102676.44;4909142;29;20044;-50
2022/03/01 08:49:35;;;;;;;28.47;14.90;;;;;;;12.27;46.37;102674.81;4911106;29;20184;-46
2022/03/01 08:52:00;;;;;;;28.73;13.83;;;;;;;12.89;45.33;102688.91;4915453;29;20048;-47
2022/03/01 08:54:26;;;;;;;26.77;12.55;;;;;;;12.40;46.27;102689.66;4905320;29;20032;-50
2022/03/01 08:56:52;;;;;;;28.00;12.20;;;;;;;12.80;45.94;102693.47;4916589;29;20082;-49
2022/03/01 08:59:18;;;;;;;31.30;13.73;;;;;;;12.95;45.60;102698.16;4893406;29;20044;-52
2022/03/01 09:01:43;;;;;;;28.92;14.07;;;;;;;13.07;45.59;102698.69;4909649;29;20040;-52
2022/03/01 09:04:09;;;;;;;28.85;12.82;;;;;;;13.08;45.43;102698.53;4916231;29;20080;-51
2022/03/01 09:06:34;;;;;;;25.17;12.43;;;;;;;13.38;44.91;102695.31;4905006;29;20069;-52
2022/03/01 09:09:00;;;;;;;25.52;12.68;;;;;;;13.71;44.27;102693.47;4915492;29;20052;-46
2022/03/01 09:11:25;;;;;;;28.57;13.70;;;;;;;13.61;44.28;102698.19;4910757;29;20046;-50
2022/03/01 09:13:51;;;;;;;26.27;13.70;;;;;;;13.82;43.67;102700.34;4908752;29;20052;-52
2022/03/01 09:16:17;;;;;;;26.93;14.07;;;;;;;14.04;43.18;102698.78;4917156;29;20028;-51
2022/03/01 09:18:43;;;;;;;26.27;13.18;;;;;;;13.75;43.59;102704.72;4904973;29;20061;-53
2022/03/01 09:21:09;;;;;;;25.40;13.27;;;;;;;13.50;44.46;102702.06;4914285;29;20045;-49
2022/03/01 09:23:34;;;;;;;32.38;13.60;;;;;;;13.78;43.84;102709.75;4911858;29;20052;-52
2022/03/01 09:26:01;;;;;;;29.50;13.87;;;;;;;13.94;43.98;102703.50;4907197;29;20048;-51
2022/03/01 09:28:26;;;;;;;24.30;12.55;;;;;;;14.14;43.12;102708.50;4900897;29;20071;-48
2022/03/01 09:30:52;;;;;;;28.33;13.88;;;;;;;14.00;42.97;102707.34;4906022;29;20068;-52
2022/03/01 09:33:18;;;;;;;31.23;13.60;;;;;;;14.54;42.37;102703.13;4912772;29;20100;-51
2022/03/01 09:35:46;;;;;;;31.77;13.98;;;;;;;14.64;42.10;102703.72;4912025;29;20047;-52
2022/03/01 09:38:12;;;;;;;27.90;14.57;;;;;;;14.84;41.89;102708.69;4905563;29;20056;-54
2022/03/01 09:40:37;;;;;;;27.63;14.10;;;;;;;14.77;41.82;102708.56;4916857;29;20049;-50
2022/03/01 09:43:02;;;;;;;29.70;14.07;;;;;;;14.68;42.43;102709.63;4906818;29;20048;-49
2022/03/01 09:45:29;;;;;;;25.00;12.82;;;;;;;14.49;42.33;102720.63;4911106;29;20037;-49
2022/03/01 09:47:55;;;;;;;26.27;13.05;;;;;;;14.34;42.24;102711.63;4913422;29;20084;-50
2022/03/01 09:50:27;;;;;;;25.00;11.80;;;;;;;14.01;41.16;102712.59;4903965;29;20040;-54
2022/03/01 09:52:58;;;;;;;26.20;13.90;;;;;;;13.95;40.85;102715.13;4915127;29;20068;-48
2022/03/01 09:55:25;;;;;;;23.73;12.20;;;;;;;13.86;39.71;102715.16;4909046;29;20048;-51
2022/03/01 09:57:50;;;;;;;24.55;11.75;;;;;;;14.08;38.95;102712.75;4908488;29;20044;-47
2022/03/01 10:00:17;;;;;;;22.33;12.10;;;;;;;14.03;39.27;102712.38;4915564;29;20040;-48
2022/03/01 10:02:43;;;;;;;21.52;10.50;;;;;;;14.19;39.09;102716.91;4903671;29;20059;-51
2022/03/01 10:05:11;;;;;;;21.85;11.50;;;;;;;13.99;39.58;102705.69;4913466;29;20044;-49
2022/03/01 10:07:42;;;;;;;23.80;12.35;;;;;;;13.99;39.31;102706.53;4910612;29;20048;-49
2022/03/01 10:10:12;;;;;;;25.90;13.02;;;;;;;14.41;38.73;102711.75;4905611;29;20065;-51
2022/03/01 10:12:38;;;;;;;27.67;12.43;;;;;;;14.59;38.92;102719.59;4915869;29;20044;-50
2022/03/01 10:15:06;;;;;;;26.67;12.30;;;;;;;14.83;37.91;102724.00;4905837;29;20190;-49
2022/03/01 10:17:38;;;;;;;22.60;12.45;;;;;;;14.51;38.75;102719.59;4910244;29;20401;-51
2022/03/01 10:20:07;;;;;;;29.23;12.93;;;;;;;14.94;38.17;102730.03;4913822;29;20052;-47
2022/03/01 10:22:32;;;;;;;25.25;12.35;;;;;;;15.52;37.29;102721.47;4903814;29;20036;-49
2022/03/01 10:25:04;;;;;;;21.40;12.07;;;;;;;15.37;36.57;102724.16;4914889;29;20051;-50
2022/03/01 10:27:31;;;;;;;28.67;13.35;;;;;;;15.63;36.97;102708.38;4909204;29;20044;-50
2022/03/01 10:29:56;;;;;;;22.27;12.85;;;;;;;15.17;37.60;102708.47;4907277;29;20056;-50
2022/03/01 10:32:21;;;;;;;26.27;12.03;;;;;;;15.77;36.09;102711.31;4915900;29;20100;-50
2022/03/01 10:35:09;;;;;;;26.38;12.15;;;;;;;15.83;36.62;102707.84;4903777;29;20044;-49
2022/03/01 10:37:37;;;;;;;25.67;12.52;;;;;;;15.71;36.71;102715.56;4909811;29;20083;-50
2022/03/01 10:40:09;;;;;;;27.70;12.80;;;;;;;15.47;35.99;102709.38;4913177;29;20145;-50
2022/03/01 10:42:35;;;;;;;25.02;11.88;;;;;;;15.45;36.43;102726.75;4903290;29;20056;-50
2022/03/01 10:45:00;;;;;;;23.63;11.93;;;;;;;15.44;36.16;102725.94;4914252;29;20041;-49
2022/03/01 10:47:26;;;;;;;25.23;11.93;;;;;;;15.57;36.09;102719.91;4908504;29;20040;-46
2022/03/01 10:50:04;;;;;;;24.15;11.70;;;;;;;15.54;35.88;102717.59;4887402;29;20126;-52
2022/03/01 10:52:34;;;;;;;25.15;11.93;;;;;;;15.89;35.44;102712.53;4917925;29;20541;-50
2022/03/01 10:55:01;;;;;;;21.75;12.30;;;;;;;15.57;36.29;102713.66;4904675;29;20056;-47
2022/03/01 10:57:27;;;;;;;27.88;13.35;;;;;;;15.75;35.90;102722.25;4910550;29;20089;-51
2022/03/01 10:59:53;;;;;;;27.70;12.07;;;;;;;16.10;35.33;102718.25;4911822;29;20113;-48
2022/03/01 11:02:20;;;;;;;27.02;13.32;;;;;;;16.53;35.04;102718.38;4903891;29;20025;-51
2022/03/01 11:04:47;;;;;;;24.55;12.57;;;;;;;16.20;35.66;102714.22;4915169;29;20036;-50
2022/03/01 11:07:13;;;;;;;29.00;12.30;;;;;;;15.82;35.73;102719.69;4906092;29;20041;-50
2022/03/01 11:09:40;;;;;;;24.33;13.20;;;;;;;16.23;35.56;102714.88;4908817;29;20049;-51